Axtell, KS (66403)

8:09 AM CST on February 01, 2015 (GMT -0600)
Brenner | Change Station
CLOSE
Current Station
Airport
Location: Falls City,
Elevation: 984 ft
Nearby Weather Stations
Active Advisory: Winter Weather Advisory Active Notice: Record Report, Local Storm Report

Elev 984 ft 40.08 °N, 95.59 °W | Updated 16 minutes ago

Snow
Snow
32 °F
Feels Like 24 °F
N
10
Wind Variable Wind from NW

Today
High -- | Low -- °F
--% Chance of Precip.
Yesterday
High -- | Low -- °F
Precip. -- in
7:33 AM 5:44 PM
Waxing Gibbous, 95% visible
Pressure 29.81 in
Visibility 1.5 miles
Clouds Overcast 400 ft
Windchill 24 °F
Dew Point 31 °F
Humidity 96%
Rainfall 0.14 in
Snow Depth Not available.
UV 0 out of 12
Pollen .10 out of 12
Air Quality Not available.
Flu Activity Not available.
METAR KFNB 011353Z AUTO 32009KT 1 1/2SM -SN BR OVC004 00/M01 A2978 RMK AO2 SLP094 P0001 T00001006

More Conditions Fewer Conditions

Pressure 29.81 in
Visibility 1.5 miles
Clouds Overcast 400 ft
Windchill 24 °F
Dew Point 31 °F
Humidity 96%
Rainfall 0.14 in
Snow Depth Not available.
UV 0 out of 12
Pollen .10 out of 12
Air Quality Not available.
Flu Activity Not available.
METAR KFNB 011353Z AUTO 32009KT 1 1/2SM -SN BR OVC004 00/M01 A2978 RMK AO2 SLP094 P0001 T00001006

More Conditions Fewer Conditions

10-Day Weather Forecast

Almanac

Astronomy

Feb. 01, 2015 Rise Set
Actual Time
Civil Twilight
Nautical Twilight
Astronomical Twilight
Moon
Length of Visible Light
Length of Day
Tomorrow will be .
, % of the Moon is Illuminated

Today's Extremes

State Highs State Lows

Community

WunderPhotos

Upload Photos

1,792,363 photos uploaded!

WunderBlogs® & News

Nearby

Air Quality

  Air Quality AQ Index Pollutant
Not available.

Snow Depth

Station Depth Elevation

Earthquake Activity

City Distance Mag. Time & Date
Minimum magnitude displayed is 2.5.

Coastal Water Temperatures

Place Temperature

Nearby Weather Stations